Time;durP1;ratioP1;P1;durP2;ratioP2;P2;SDS_P1;SDS_P2;PMS_P1;PMS_P2;Temp;Humidity;BMP_temperature;BMP_pressure;BME280_temperature;BME280_humidity;BME280_pressure;Samples;Min_cycle;Max_cycle;Signal;HPM_P1;HPM_P2
2022/08/03 00:01:39;;;;;;;9.52;2.45;;;19.90;99.90;;;;;;5054160;28;20158;-66
2022/08/03 00:04:08;;;;;;;8.40;2.50;;;19.90;99.90;;;;;;5052187;28;20048;-65
2022/08/03 00:06:34;;;;;;;13.40;2.42;;;19.90;99.90;;;;;;5052145;28;20052;-65
2022/08/03 00:09:04;;;;;;;21.15;3.38;;;19.80;99.90;;;;;;5052146;28;20048;-67
2022/08/03 00:11:32;;;;;;;7.55;2.20;;;19.80;99.90;;;;;;5034045;28;20123;-67
2022/08/03 00:13:58;;;;;;;11.77;2.65;;;19.80;99.90;;;;;;5036406;28;20036;-66
2022/08/03 00:16:25;;;;;;;9.13;2.17;;;19.80;99.90;;;;;;5069282;28;20033;-67
2022/08/03 00:18:51;;;;;;;7.05;2.40;;;19.80;99.90;;;;;;5070166;28;20052;-66
2022/08/03 00:21:17;;;;;;;18.52;3.20;;;19.80;99.90;;;;;;5058009;28;20041;-65
2022/08/03 00:23:43;;;;;;;10.07;2.40;;;19.70;99.90;;;;;;5071808;28;20050;-65
2022/08/03 00:26:09;;;;;;;13.35;2.78;;;19.70;99.90;;;;;;5071408;28;20432;-66
2022/08/03 00:28:34;;;;;;;7.40;2.35;;;19.70;99.90;;;;;;5072005;28;20045;-66
2022/08/03 00:31:00;;;;;;;10.88;2.38;;;19.70;99.90;;;;;;5052753;28;20402;-67
2022/08/03 00:33:26;;;;;;;13.98;2.65;;;19.60;99.90;;;;;;5071208;28;20122;-65
2022/08/03 00:35:52;;;;;;;10.77;2.65;;;19.70;99.90;;;;;;5071578;28;20045;-65
2022/08/03 00:38:18;;;;;;;11.32;2.67;;;19.60;99.90;;;;;;5066821;28;20036;-67
2022/08/03 00:40:44;;;;;;;11.25;3.28;;;19.70;99.90;;;;;;5069763;28;20491;-65
2022/08/03 00:43:10;;;;;;;12.65;3.40;;;19.60;99.90;;;;;;5064336;28;20056;-66
2022/08/03 00:45:38;;;;;;;12.95;2.90;;;19.60;99.90;;;;;;5033976;28;20450;-66
2022/08/03 00:48:05;;;;;;;10.52;3.20;;;19.60;99.90;;;;;;5053302;28;20053;-64
2022/08/03 00:50:35;;;;;;;9.93;3.05;;;19.60;99.90;;;;;;5060918;28;20055;-66
2022/08/03 00:53:03;;;;;;;14.85;2.88;;;19.60;99.90;;;;;;5052188;28;20049;-65
2022/08/03 00:55:29;;;;;;;10.20;2.70;;;19.60;99.90;;;;;;5033677;28;20109;-65
2022/08/03 00:57:56;;;;;;;10.88;3.03;;;19.60;99.90;;;;;;5053034;28;20041;-66
2022/08/03 01:00:24;;;;;;;11.55;3.13;;;19.60;99.90;;;;;;5067778;28;20045;-67
2022/08/03 01:02:51;;;;;;;8.13;2.88;;;19.60;99.90;;;;;;5057535;28;20043;-66
2022/08/03 01:05:18;;;;;;;13.98;2.83;;;19.50;99.90;;;;;;5049783;28;20045;-65
2022/08/03 01:08:02;;;;;;;10.90;2.97;;;19.50;99.90;;;;;;5055604;28;20048;-67
2022/08/03 01:11:02;;;;;;;9.30;2.50;;;19.50;99.90;;;;;;5055471;28;20087;-68
2022/08/03 01:13:50;;;;;;;8.43;2.70;;;19.50;99.90;;;;;;5057832;28;20037;-67
2022/08/03 01:16:34;;;;;;;11.20;2.92;;;19.40;99.90;;;;;;5074144;28;20728;-66
2022/08/03 01:19:24;;;;;;;7.07;2.65;;;19.40;99.90;;;;;;5063034;28;20140;-65
2022/08/03 01:22:07;;;;;;;10.57;3.45;;;19.40;99.90;;;;;;5066028;28;20618;-67
2022/08/03 01:24:57;;;;;;;12.25;2.75;;;19.30;99.90;;;;;;5057444;28;20055;-66
2022/08/03 01:28:04;;;;;;;13.00;2.67;;;19.30;99.90;;;;;;5059269;28;20571;-66
2022/08/03 01:30:32;;;;;;;9.75;2.35;;;19.30;99.90;;;;;;5065870;28;20094;-65
2022/08/03 01:33:08;;;;;;;9.27;2.50;;;19.40;99.90;;;;;;5058199;28;20132;-65
2022/08/03 01:36:11;;;;;;;9.48;3.20;;;19.30;99.90;;;;;;5056722;28;20440;-66
2022/08/03 01:38:43;;;;;;;8.48;2.65;;;19.30;99.90;;;;;;5006608;28;20183;-67
2022/08/03 01:41:14;;;;;;;9.23;2.50;;;19.30;99.90;;;;;;5057249;28;20128;-66
2022/08/03 01:43:43;;;;;;;11.27;2.40;;;19.30;99.90;;;;;;5036729;28;20055;-66
2022/08/03 01:46:10;;;;;;;8.57;2.72;;;19.30;99.90;;;;;;5068899;28;20036;-66
2022/08/03 01:48:38;;;;;;;11.18;3.05;;;19.20;99.90;;;;;;5074506;28;20040;-66
2022/08/03 01:51:09;;;;;;;7.18;2.40;;;19.20;99.90;;;;;;5066870;28;20044;-64
2022/08/03 01:53:36;;;;;;;6.38;2.28;;;19.30;99.90;;;;;;5073245;28;20154;-66
2022/08/03 01:56:04;;;;;;;7.93;3.05;;;19.20;99.90;;;;;;5073201;28;20067;-66
2022/08/03 01:58:33;;;;;;;11.95;2.92;;;19.20;99.90;;;;;;5049842;28;20108;-65
2022/08/03 02:01:01;;;;;;;10.13;2.72;;;19.20;99.90;;;;;;5061414;28;20044;-66
2022/08/03 02:03:30;;;;;;;9.63;2.55;;;19.20;99.90;;;;;;5073830;28;20054;-65
2022/08/03 02:05:58;;;;;;;8.77;2.58;;;19.10;99.90;;;;;;5060048;28;20133;-64
2022/08/03 02:08:26;;;;;;;5.32;2.20;;;19.10;99.90;;;;;;5038526;28;20095;-66
2022/08/03 02:10:57;;;;;;;7.88;2.22;;;19.10;99.90;;;;;;5052140;28;20081;-65
2022/08/03 02:13:25;;;;;;;9.38;2.25;;;19.10;99.90;;;;;;5054304;28;20041;-65
2022/08/03 02:15:52;;;;;;;7.50;2.20;;;19.10;99.90;;;;;;5061659;28;20141;-66
2022/08/03 02:18:19;;;;;;;8.77;2.35;;;19.10;99.90;;;;;;5055580;28;20040;-66
2022/08/03 02:20:46;;;;;;;10.57;2.13;;;19.10;99.90;;;;;;5070893;28;20053;-65
2022/08/03 02:23:15;;;;;;;7.78;2.47;;;19.10;99.90;;;;;;5054237;28;20091;-66
2022/08/03 02:25:45;;;;;;;9.57;2.25;;;19.10;99.90;;;;;;5035953;28;20372;-66
2022/08/03 02:28:16;;;;;;;6.85;2.22;;;19.10;99.90;;;;;;5053376;28;20442;-66
2022/08/03 02:30:44;;;;;;;6.03;2.33;;;19.10;99.90;;;;;;5056276;28;20045;-67
2022/08/03 02:33:22;;;;;;;8.00;2.28;;;19.00;99.90;;;;;;5015574;28;20053;-65
2022/08/03 02:35:49;;;;;;;9.87;2.70;;;19.00;99.90;;;;;;4999957;28;20122;-66
2022/08/03 02:38:19;;;;;;;;;;;19.00;99.90;;;;;;5032567;28;20475;-65
2022/08/03 02:40:45;;;;;;;7.28;2.25;;;19.00;99.90;;;;;;5015561;28;19975;-65
2022/08/03 02:43:16;;;;;;;8.73;2.80;;;18.90;99.90;;;;;;5046731;28;20087;-66
2022/08/03 02:45:45;;;;;;;10.40;2.35;;;19.00;99.90;;;;;;5022005;28;20139;-66
2022/08/03 02:48:17;;;;;;;8.82;2.30;;;18.90;99.90;;;;;;5033544;28;20045;-66
2022/08/03 02:50:45;;;;;;;9.48;2.25;;;18.90;99.90;;;;;;5039791;28;20415;-66
2022/08/03 02:53:12;;;;;;;10.60;2.80;;;18.90;99.90;;;;;;5053115;28;20044;-67
2022/08/03 02:55:39;;;;;;;8.07;2.63;;;18.90;99.90;;;;;;5037858;28;20048;-66
2022/08/03 02:58:06;;;;;;;4.70;2.03;;;18.90;99.90;;;;;;5033277;28;20042;-66
2022/08/03 03:00:35;;;;;;;11.27;2.75;;;18.90;99.90;;;;;;5031562;28;20049;-67
2022/08/03 03:03:03;;;;;;;6.35;2.13;;;18.90;99.90;;;;;;5050264;28;20131;-65
2022/08/03 03:05:29;;;;;;;9.90;2.42;;;18.80;99.90;;;;;;5033181;28;20495;-65
2022/08/03 03:07:56;;;;;;;11.88;2.53;;;18.80;99.90;;;;;;5033578;28;20106;-66
2022/08/03 03:10:23;;;;;;;9.65;2.70;;;18.80;99.90;;;;;;5016021;28;20056;-66
2022/08/03 03:12:55;;;;;;;7.90;2.05;;;18.80;99.90;;;;;;5033058;28;20121;-65
2022/08/03 03:15:22;;;;;;;7.95;2.40;;;18.80;99.90;;;;;;5033150;28;20127;-66
2022/08/03 03:17:50;;;;;;;14.68;2.90;;;18.80;99.90;;;;;;5042465;28;20045;-66
2022/08/03 03:20:17;;;;;;;11.70;2.53;;;18.80;99.90;;;;;;5050259;28;20398;-67
2022/08/03 03:22:45;;;;;;;7.70;2.37;;;18.80;99.90;;;;;;5070785;28;20613;-66
2022/08/03 03:25:15;;;;;;;8.38;2.70;;;18.80;99.90;;;;;;5064413;28;20302;-65
2022/08/03 03:27:41;;;;;;;8.13;2.85;;;18.80;99.90;;;;;;5029339;28;20045;-66
2022/08/03 03:30:07;;;;;;;10.32;2.60;;;18.70;99.90;;;;;;5014658;28;20041;-64
2022/08/03 03:32:35;;;;;;;11.77;2.70;;;18.70;99.90;;;;;;5047231;28;20059;-66
2022/08/03 03:35:08;;;;;;;9.80;2.70;;;18.70;99.90;;;;;;5072516;28;20040;-65
2022/08/03 03:37:34;;;;;;;12.38;2.90;;;18.70;99.90;;;;;;5060275;28;20084;-65
2022/08/03 03:40:00;;;;;;;17.38;2.58;;;18.70;99.90;;;;;;5034665;28;20177;-66
2022/08/03 03:42:26;;;;;;;10.32;2.60;;;18.70;99.90;;;;;;5052687;28;20063;-65
2022/08/03 03:44:51;;;;;;;14.98;2.92;;;18.60;99.90;;;;;;5071300;28;20071;-68
2022/08/03 03:47:17;;;;;;;9.73;2.50;;;18.70;99.90;;;;;;5071469;28;20048;-67
2022/08/03 03:49:47;;;;;;;11.27;2.90;;;18.60;99.90;;;;;;5052557;28;20108;-66
2022/08/03 03:52:12;;;;;;;15.27;2.95;;;18.60;99.90;;;;;;5052306;28;20051;-65
2022/08/03 03:54:42;;;;;;;10.20;2.58;;;18.60;99.90;;;;;;5034736;28;20147;-66
2022/08/03 03:57:10;;;;;;;14.18;3.00;;;18.60;99.90;;;;;;5052127;28;20041;-66
2022/08/03 03:59:43;;;;;;;8.80;2.65;;;18.60;99.90;;;;;;5052231;28;20049;-63
2022/08/03 04:02:10;;;;;;;9.93;2.80;;;18.60;99.90;;;;;;5056824;28;20458;-65
2022/08/03 04:13:05;;;;;;;8.65;2.33;;;18.60;99.90;;;;;;5067060;28;20047;-67
2022/08/03 04:15:32;;;;;;;11.77;3.30;;;18.60;99.90;;;;;;5058500;28;20537;-66
2022/08/03 04:18:00;;;;;;;12.37;3.40;;;18.60;99.90;;;;;;5059945;28;20410;-66
2022/08/03 04:20:30;;;;;;;7.50;3.03;;;18.60;99.90;;;;;;5052753;28;20453;-66
2022/08/03 04:22:59;;;;;;;15.40;3.53;;;18.60;99.90;;;;;;5052435;28;20052;-65
2022/08/03 04:25:29;;;;;;;9.45;2.42;;;18.60;99.90;;;;;;5052158;28;20041;-66
2022/08/03 04:28:00;;;;;;;6.93;2.80;;;18.60;99.90;;;;;;5052208;28;20411;-66
2022/08/03 04:30:27;;;;;;;10.82;2.65;;;18.60;99.90;;;;;;5052009;28;20052;-64
2022/08/03 04:32:56;;;;;;;9.50;3.20;;;18.60;99.90;;;;;;5060401;28;20083;-67
2022/08/03 04:35:29;;;;;;;11.68;3.00;;;18.60;99.90;;;;;;5057538;28;20041;-66
2022/08/03 04:37:59;;;;;;;6.35;2.80;;;18.60;99.90;;;;;;5061974;28;20083;-66
2022/08/03 04:40:31;;;;;;;16.48;3.35;;;18.60;99.90;;;;;;5075613;28;20048;-65
2022/08/03 04:42:58;;;;;;;10.75;3.20;;;18.60;99.90;;;;;;5075225;28;20053;-66
2022/08/03 04:45:25;;;;;;;9.88;3.03;;;18.50;99.90;;;;;;5075797;28;20093;-66
2022/08/03 04:47:52;;;;;;;13.07;2.85;;;18.60;99.90;;;;;;5069827;28;20406;-65
2022/08/03 04:50:18;;;;;;;10.48;3.05;;;18.60;99.90;;;;;;5037696;28;20402;-65
2022/08/03 04:52:44;;;;;;;10.95;3.92;;;18.60;99.90;;;;;;5055848;28;20052;-67
2022/08/03 04:55:29;;;;;;;14.25;3.00;;;18.60;99.90;;;;;;5055855;28;20049;-66
2022/08/03 04:57:56;;;;;;;13.43;3.13;;;18.70;99.90;;;;;;5055571;28;20083;-64
2022/08/03 05:00:22;;;;;;;13.57;3.08;;;18.70;99.90;;;;;;5055571;28;20080;-67
2022/08/03 05:02:48;;;;;;;14.15;3.05;;;18.70;99.90;;;;;;5040636;28;20131;-67
2022/08/03 05:05:14;;;;;;;7.03;2.63;;;18.70;99.90;;;;;;5074246;28;20036;-66
2022/08/03 05:07:40;;;;;;;8.05;3.22;;;18.70;99.90;;;;;;5075765;28;20479;-67
2022/08/03 05:10:08;;;;;;;13.13;3.20;;;18.80;99.90;;;;;;5072263;28;20044;-65
2022/08/03 05:12:40;;;;;;;15.63;3.42;;;18.80;99.90;;;;;;5074124;28;20072;-68
2022/08/03 05:15:06;;;;;;;16.73;2.88;;;18.80;99.90;;;;;;5056376;28;20127;-66
2022/08/03 05:17:35;;;;;;;14.90;3.05;;;18.80;99.90;;;;;;5057030;28;20455;-65
2022/08/03 05:20:02;;;;;;;15.52;3.45;;;18.90;99.90;;;;;;5074196;28;20045;-66
2022/08/03 05:22:28;;;;;;;11.25;2.85;;;18.90;99.90;;;;;;5074466;28;20048;-66
2022/08/03 05:24:54;;;;;;;15.93;2.95;;;19.00;99.90;;;;;;5074024;28;20033;-65
2022/08/03 05:27:20;;;;;;;13.82;3.30;;;19.00;99.90;;;;;;5059851;28;20540;-66
2022/08/03 05:29:46;;;;;;;12.40;3.40;;;19.00;99.90;;;;;;5054916;28;20056;-66
2022/08/03 05:32:12;;;;;;;10.68;2.60;;;19.10;99.90;;;;;;5055386;28;20051;-66
2022/08/03 05:34:38;;;;;;;11.20;3.13;;;19.10;99.90;;;;;;5067622;28;20414;-65
2022/08/03 05:37:04;;;;;;;13.40;3.92;;;19.20;99.90;;;;;;5036677;28;20048;-66
2022/08/03 05:39:29;;;;;;;14.35;3.65;;;19.20;99.90;;;;;;5036824;28;20045;-65
2022/08/03 05:41:55;;;;;;;14.50;3.50;;;19.30;99.90;;;;;;5054999;28;20040;-66
2022/08/03 05:44:24;;;;;;;13.68;3.60;;;19.40;99.90;;;;;;5053299;28;20360;-66
2022/08/03 05:46:50;;;;;;;14.10;3.25;;;19.40;99.90;;;;;;5054825;28;20483;-65
2022/08/03 05:49:17;;;;;;;12.50;3.10;;;19.50;99.90;;;;;;5062752;28;20090;-65
2022/08/03 05:51:42;;;;;;;13.80;3.40;;;19.50;99.90;;;;;;5074554;28;20379;-66
2022/08/03 05:54:08;;;;;;;13.50;3.58;;;19.60;99.90;;;;;;5074303;28;20067;-66
2022/08/03 05:56:34;;;;;;;13.82;2.90;;;19.70;99.90;;;;;;5054984;28;20049;-66
2022/08/03 05:58:59;;;;;;;15.43;3.33;;;19.70;99.90;;;;;;5053899;28;20532;-64
2022/08/03 06:01:25;;;;;;;12.57;2.95;;;19.80;99.90;;;;;;5056227;28;20044;-65
2022/08/03 06:03:54;;;;;;;8.07;3.13;;;19.90;99.90;;;;;;5067646;28;20398;-66
2022/08/03 06:06:20;;;;;;;15.15;3.33;;;19.90;99.90;;;;;;5054239;28;20116;-66
2022/08/03 06:08:47;;;;;;;13.35;2.55;;;20.00;99.90;;;;;;5054628;28;20134;-65
2022/08/03 06:11:13;;;;;;;13.90;3.80;;;20.10;99.90;;;;;;5054029;28;20493;-65
2022/08/03 06:13:39;;;;;;;14.60;3.10;;;20.10;99.90;;;;;;5054423;28;20072;-67
2022/08/03 06:16:08;;;;;;;11.52;2.63;;;20.20;99.90;;;;;;5051177;28;20107;-65
2022/08/03 06:18:34;;;;;;;13.75;3.25;;;20.20;99.90;;;;;;5050917;28;20156;-65
2022/08/03 06:21:00;;;;;;;11.45;3.15;;;20.30;99.90;;;;;;5069333;28;20044;-65
2022/08/03 06:23:26;;;;;;;15.25;3.70;;;20.30;99.90;;;;;;5053921;28;20045;-67
2022/08/03 06:25:52;;;;;;;10.02;3.05;;;20.40;99.90;;;;;;5054283;28;20391;-66
2022/08/03 06:28:18;;;;;;;13.32;3.17;;;20.50;99.90;;;;;;5053907;28;20128;-66
2022/08/03 06:30:44;;;;;;;16.67;3.90;;;20.60;99.90;;;;;;5054536;28;20410;-66
2022/08/03 06:33:10;;;;;;;11.93;3.20;;;20.70;99.90;;;;;;5053597;28;20072;-66
2022/08/03 06:35:35;;;;;;;19.80;3.88;;;20.80;99.90;;;;;;5056386;28;20506;-66
2022/08/03 06:38:01;;;;;;;11.70;3.17;;;20.90;99.90;;;;;;5053592;28;20124;-65
2022/08/03 06:40:30;;;;;;;10.75;3.05;;;21.10;99.90;;;;;;5053267;28;20491;-66
2022/08/03 06:43:01;;;;;;;15.73;3.53;;;21.30;99.90;;;;;;5027730;28;20093;-66
2022/08/03 06:45:30;;;;;;;12.07;3.30;;;21.40;99.90;;;;;;5073395;28;20044;-67
2022/08/03 06:48:14;;;;;;;17.70;3.25;;;21.60;99.90;;;;;;5055508;28;20056;-66
2022/08/03 06:50:41;;;;;;;12.05;3.30;;;21.80;99.90;;;;;;5071773;28;20040;-65
2022/08/03 06:53:13;;;;;;;12.32;3.45;;;22.10;99.90;;;;;;5073272;28;20048;-65
2022/08/03 06:55:38;;;;;;;9.65;3.10;;;22.20;99.90;;;;;;5069427;28;20064;-65
2022/08/03 06:58:04;;;;;;;10.73;3.60;;;22.20;99.90;;;;;;5052947;28;20075;-66
2022/08/03 07:00:30;;;;;;;15.48;3.42;;;22.30;99.90;;;;;;5063796;28;20466;-66
2022/08/03 07:02:55;;;;;;;11.80;3.25;;;22.40;99.90;;;;;;5069290;28;20071;-66
2022/08/03 07:05:24;;;;;;;14.82;3.50;;;22.50;99.90;;;;;;5061533;28;20047;-66
2022/08/03 07:07:53;;;;;;;18.88;3.83;;;22.60;99.90;;;;;;5052961;28;20045;-65
2022/08/03 07:10:18;;;;;;;13.68;3.35;;;22.70;99.90;;;;;;5053131;28;20060;-65
2022/08/03 07:12:44;;;;;;;10.63;3.42;;;22.80;99.90;;;;;;5053354;28;20045;-67
2022/08/03 07:15:10;;;;;;;15.07;3.33;;;22.80;99.90;;;;;;5052809;28;20072;-66
2022/08/03 07:17:36;;;;;;;14.93;3.20;;;22.90;99.90;;;;;;5052893;28;20491;-67
2022/08/03 07:20:05;;;;;;;9.75;3.33;;;23.00;99.90;;;;;;5053245;28;20048;-69
2022/08/03 07:22:31;;;;;;;15.43;3.22;;;23.00;99.90;;;;;;5052963;28;20052;-65
2022/08/03 07:24:57;;;;;;;18.52;3.38;;;23.10;99.90;;;;;;5034885;28;20040;-65
2022/08/03 07:27:25;;;;;;;15.88;3.20;;;23.20;99.90;;;;;;5069229;28;20238;-65
2022/08/03 07:29:51;;;;;;;15.77;3.65;;;23.20;99.90;;;;;;5072776;28;20052;-64
2022/08/03 07:32:20;;;;;;;17.60;3.30;;;23.30;99.90;;;;;;5043065;28;20403;-66
2022/08/03 07:34:46;;;;;;;13.10;3.40;;;23.30;99.90;;;;;;5062785;28;20438;-65
2022/08/03 07:37:11;;;;;;;18.65;3.67;;;23.40;99.90;;;;;;5055177;28;20040;-67
2022/08/03 07:39:40;;;;;;;12.82;3.50;;;23.40;99.90;;;;;;5054362;28;20053;-66
2022/08/03 07:42:05;;;;;;;15.85;3.38;;;23.40;99.90;;;;;;5034600;28;20044;-66
2022/08/03 07:44:31;;;;;;;16.38;4.05;;;23.50;99.90;;;;;;5034954;28;20048;-66
2022/08/03 07:46:57;;;;;;;9.75;3.00;;;23.50;99.90;;;;;;5052845;28;20127;-65
2022/08/03 07:49:22;;;;;;;14.95;3.50;;;23.60;99.90;;;;;;5052508;28;20041;-67
2022/08/03 07:52:46;;;;;;;13.73;3.58;;;23.80;99.90;;;;;;5018020;28;20044;-66
2022/08/03 07:54:34;;;;;;;13.90;3.38;;;23.90;99.90;;;;;;5056487;28;20052;-66
2022/08/03 07:56:59;;;;;;;13.25;2.95;;;24.10;99.90;;;;;;5034785;28;20119;-66
2022/08/03 07:59:25;;;;;;;14.63;3.47;;;24.20;99.90;;;;;;5052388;28;20041;-64
2022/08/03 08:01:52;;;;;;;14.45;3.42;;;24.30;99.90;;;;;;5060251;28;20036;-65
2022/08/03 08:04:18;;;;;;;10.57;3.28;;;24.40;99.90;;;;;;5052707;28;20088;-67
2022/08/03 08:06:44;;;;;;;12.57;3.75;;;24.50;99.90;;;;;;5037274;28;20036;-65
2022/08/03 08:09:10;;;;;;;8.98;3.05;;;24.50;99.90;;;;;;5033001;28;20045;-66
2022/08/03 08:11:39;;;;;;;12.18;3.10;;;24.60;99.90;;;;;;5052092;28;20048;-66
2022/08/03 08:14:06;;;;;;;11.70;2.75;;;24.60;99.90;;;;;;5051802;28;20095;-65
2022/08/03 08:16:32;;;;;;;15.52;3.30;;;24.70;99.90;;;;;;5034361;28;20049;-66
2022/08/03 08:18:57;;;;;;;11.43;3.38;;;24.80;99.90;;;;;;5034081;28;20044;-64
2022/08/03 08:21:23;;;;;;;12.63;3.58;;;24.90;99.90;;;;;;5051850;28;20095;-66
2022/08/03 08:23:49;;;;;;;14.05;3.40;;;24.90;99.90;;;;;;5052395;28;20091;-66
2022/08/03 08:26:15;;;;;;;14.23;3.17;;;25.00;99.90;;;;;;5052245;28;20048;-67
2022/08/03 08:28:41;;;;;;;11.07;3.72;;;25.10;99.90;;;;;;5052076;28;20045;-65
2022/08/03 08:31:07;;;;;;;14.85;3.22;;;25.20;99.90;;;;;;5058382;28;20049;-65
2022/08/03 08:33:34;;;;;;;11.57;3.40;;;25.40;99.90;;;;;;5055871;28;20059;-67
2022/08/03 08:36:00;;;;;;;10.38;3.67;;;25.60;99.90;;;;;;5072002;28;20052;-66
2022/08/03 08:38:29;;;;;;;11.45;2.85;;;25.60;99.90;;;;;;5066330;28;20043;-68
2022/08/03 08:40:55;;;;;;;12.15;3.35;;;25.60;99.90;;;;;;5052092;28;20041;-65
2022/08/03 08:43:21;;;;;;;10.88;3.53;;;25.70;99.90;;;;;;5050478;28;20431;-67
2022/08/03 08:45:52;;;;;;;9.88;3.28;;;25.70;99.90;;;;;;5034473;28;20041;-65
2022/08/03 08:48:24;;;;;;;11.43;3.30;;;25.70;99.90;;;;;;5036438;28;20398;-65
2022/08/03 08:50:54;;;;;;;14.10;4.03;;;25.80;99.90;;;;;;5053788;28;20098;-65
2022/08/03 08:53:21;;;;;;;9.85;3.33;;;25.90;99.90;;;;;;5068821;28;20039;-65
2022/08/03 08:55:49;;;;;;;14.68;3.40;;;25.80;99.90;;;;;;5068206;28;20529;-67
2022/08/03 08:58:18;;;;;;;13.30;3.75;;;25.90;99.90;;;;;;5053527;28;20119;-65
2022/08/03 09:00:44;;;;;;;17.00;3.63;;;25.90;99.90;;;;;;5061430;28;20048;-65
2022/08/03 09:03:13;;;;;;;16.15;3.67;;;25.90;99.90;;;;;;5055647;28;20060;-64
2022/08/03 09:05:42;;;;;;;15.52;3.30;;;25.90;99.90;;;;;;5059409;28;20080;-67
2022/08/03 09:08:10;;;;;;;13.75;3.42;;;25.90;99.90;;;;;;5033627;28;20043;-66
2022/08/03 09:10:36;;;;;;;14.43;3.92;;;25.90;99.90;;;;;;5051655;28;20055;-65
2022/08/03 09:13:02;;;;;;;14.98;3.80;;;26.20;99.90;;;;;;5051804;28;20045;-65
2022/08/03 09:15:32;;;;;;;11.55;3.72;;;26.40;99.90;;;;;;5051900;28;20044;-65
2022/08/03 09:18:02;;;;;;;11.82;3.50;;;26.50;99.90;;;;;;5051687;28;20084;-65
2022/08/03 09:20:31;;;;;;;15.80;4.07;;;26.50;99.90;;;;;;5051806;28;20119;-68
2022/08/03 09:23:01;;;;;;;15.50;3.72;;;26.40;99.90;;;;;;5075054;28;20049;-66
2022/08/03 09:25:32;;;;;;;12.88;3.30;;;26.40;99.90;;;;;;5074482;28;20049;-65
2022/08/03 09:28:32;;;;;;;15.20;4.03;;;26.40;99.90;;;;;;5036971;28;20044;-65
2022/08/03 09:30:59;;;;;;;13.43;3.65;;;26.50;99.90;;;;;;5054922;28;20053;-66
2022/08/03 09:33:27;;;;;;;10.82;3.33;;;26.70;99.90;;;;;;5033485;28;20484;-66
2022/08/03 09:35:55;;;;;;;13.55;3.92;;;26.90;99.90;;;;;;5034654;28;20503;-65
2022/08/03 09:38:24;;;;;;;15.23;4.15;;;26.90;99.90;;;;;;5036558;28;20569;-67
2022/08/03 09:40:51;;;;;;;11.75;3.90;;;26.90;99.90;;;;;;5036595;28;20495;-66
2022/08/03 09:43:17;;;;;;;9.63;3.55;;;27.00;99.90;;;;;;5033274;28;20407;-66
2022/08/03 09:45:43;;;;;;;16.30;4.20;;;27.00;99.90;;;;;;5034989;28;20038;-64
2022/08/03 09:48:26;;;;;;;18.35;3.65;;;27.00;99.90;;;;;;5034805;28;20042;-65
2022/08/03 09:50:53;;;;;;;11.50;3.70;;;27.10;99.90;;;;;;5050159;28;20045;-65
2022/08/03 09:53:19;;;;;;;;;;;27.20;99.90;;;;;;5039173;28;20502;-66
2022/08/03 09:55:55;;;;;;;14.43;3.55;;;27.10;99.90;;;;;;5074394;28;19928;-65
2022/08/03 09:58:26;;;;;;;16.33;4.35;;;27.10;99.90;;;;;;5063151;28;20049;-67
2022/08/03 10:01:05;;;;;;;14.20;3.45;;;27.10;99.90;;;;;;5034415;28;20400;-65
2022/08/03 10:03:39;;;;;;;14.40;3.60;;;27.20;99.90;;;;;;5034760;28;20689;-69
2022/08/03 10:06:18;;;;;;;13.02;3.58;;;27.20;99.90;;;;;;5049164;28;20095;-65
2022/08/03 10:08:45;;;;;;;11.45;3.72;;;27.30;99.90;;;;;;5040012;28;20045;-64
2022/08/03 10:11:10;;;;;;;9.67;3.57;;;27.40;99.90;;;;;;5054057;28;20410;-65
2022/08/03 10:13:37;;;;;;;16.75;4.03;;;27.50;99.90;;;;;;5054213;28;20056;-65
2022/08/03 10:16:03;;;;;;;14.82;4.10;;;27.60;99.90;;;;;;5053874;28;20503;-65
2022/08/03 10:18:29;;;;;;;13.80;3.65;;;27.70;99.90;;;;;;5019379;28;20045;-66
2022/08/03 10:21:02;;;;;;;13.38;3.40;;;27.80;99.90;;;;;;5040416;28;20108;-66
2022/08/03 10:23:32;;;;;;;11.82;3.47;;;27.90;99.90;;;;;;5033797;28;20045;-65
2022/08/03 10:26:02;;;;;;;19.77;4.15;;;28.20;99.90;;;;;;5034047;28;20407;-66
2022/08/03 10:28:35;;;;;;;12.93;3.58;;;28.50;99.90;;;;;;5033820;28;20045;-66
2022/08/03 10:31:03;;;;;;;10.02;3.78;;;28.70;99.90;;;;;;5015513;28;20147;-66
2022/08/03 10:33:33;;;;;;;10.77;3.10;;;29.00;99.90;;;;;;5042185;28;20136;-65
2022/08/03 10:36:01;;;;;;;8.98;3.45;;;29.10;99.90;;;;;;5045944;28;20056;-64
2022/08/03 10:38:36;;;;;;;11.23;2.85;;;29.30;99.90;;;;;;5060002;28;20051;-65
2022/08/03 10:41:07;;;;;;;15.75;4.20;;;29.40;99.90;;;;;;5053723;28;20049;-65
2022/08/03 10:43:41;;;;;;;14.90;4.32;;;29.60;99.90;;;;;;5053474;28;20083;-65
2022/08/03 10:46:16;;;;;;;15.70;3.28;;;29.90;99.90;;;;;;5058608;28;20049;-64
2022/08/03 10:48:42;;;;;;;10.02;3.58;;;30.00;99.80;;;;;;5054597;28;20098;-65
2022/08/03 10:51:12;;;;;;;13.35;3.30;;;30.20;99.90;;;;;;5045336;28;20048;-65
2022/08/03 10:53:44;;;;;;;16.92;3.90;;;30.50;99.50;;;;;;5045455;28;20442;-67
2022/08/03 10:59:45;;;;;;;17.98;4.60;;;30.80;97.90;;;;;;5053813;28;20041;-65
2022/08/03 11:02:15;;;;;;;11.13;3.25;;;30.90;97.20;;;;;;5052865;28;20597;-66
2022/08/03 11:04:41;;;;;;;18.67;4.07;;;31.10;98.00;;;;;;5053033;28;20044;-65
2022/08/03 11:07:24;;;;;;;13.10;3.42;;;31.30;97.70;;;;;;5069252;28;20047;-65
2022/08/03 11:09:55;;;;;;;18.67;4.63;;;31.30;95.80;;;;;;5054968;28;20045;-65
2022/08/03 11:12:23;;;;;;;15.05;4.47;;;31.40;96.20;;;;;;5052897;28;20049;-65
2022/08/03 11:14:49;;;;;;;18.77;4.50;;;31.50;96.20;;;;;;5058858;28;20051;-65
2022/08/03 11:17:15;;;;;;;14.38;3.83;;;31.50;95.60;;;;;;5073114;28;20051;-66
2022/08/03 11:19:45;;;;;;;15.63;4.63;;;31.40;95.90;;;;;;5042674;28;20403;-65
2022/08/03 11:22:12;;;;;;;16.83;3.50;;;31.50;95.30;;;;;;5049869;28;20130;-67
2022/08/03 11:24:50;;;;;;;10.35;3.78;;;31.80;95.50;;;;;;5072097;28;20036;-65
2022/08/03 11:27:17;;;;;;;19.73;4.75;;;31.90;94.50;;;;;;5072607;28;20049;-67
2022/08/03 11:29:59;;;;;;;20.63;4.40;;;32.10;94.10;;;;;;5063967;28;20494;-66
2022/08/03 11:32:37;;;;;;;21.00;4.57;;;32.30;93.40;;;;;;5034507;28;20399;-67
2022/08/03 11:35:16;;;;;;;14.43;3.85;;;32.40;92.70;;;;;;5052813;28;20045;-66
2022/08/03 11:37:57;;;;;;;20.92;4.35;;;32.30;92.50;;;;;;5035028;28;20068;-68
2022/08/03 11:40:32;;;;;;;20.48;4.30;;;32.30;92.40;;;;;;5072336;28;20460;-64
2022/08/03 11:42:57;;;;;;;21.23;4.97;;;32.20;92.60;;;;;;5072606;28;20040;-65
2022/08/03 11:45:23;;;;;;;18.43;3.63;;;32.20;92.50;;;;;;5049667;28;20055;-67
2022/08/03 11:47:53;;;;;;;16.00;4.37;;;32.20;92.50;;;;;;5052246;28;20549;-66
2022/08/03 11:50:20;;;;;;;17.00;4.30;;;32.20;92.30;;;;;;5034496;28;20045;-67
2022/08/03 11:52:46;;;;;;;12.43;4.13;;;32.20;92.30;;;;;;5062381;28;20094;-65
2022/08/03 11:55:14;;;;;;;16.42;5.30;;;32.30;92.10;;;;;;5052267;28;20506;-65
2022/08/03 11:57:40;;;;;;;19.52;4.22;;;32.30;92.10;;;;;;5052415;28;20064;-65
2022/08/03 12:00:32;;;;;;;18.73;4.87;;;32.40;92.20;;;;;;5051992;28;20479;-65
2022/08/03 12:03:04;;;;;;;21.85;4.88;;;32.40;91.70;;;;;;5034252;28;20483;-65
2022/08/03 12:05:42;;;;;;;20.23;4.93;;;32.30;91.20;;;;;;5051967;28;20487;-66
2022/08/03 12:08:10;;;;;;;26.17;5.65;;;32.30;89.70;;;;;;5067011;28;20394;-65
2022/08/03 12:10:44;;;;;;;19.20;4.40;;;32.30;90.70;;;;;;5066548;28;20043;-63
2022/08/03 12:13:09;;;;;;;21.23;4.55;;;32.30;90.60;;;;;;5052006;28;20045;-66
2022/08/03 12:15:37;;;;;;;19.57;5.17;;;32.30;91.20;;;;;;5051919;28;20510;-65
2022/08/03 12:18:11;;;;;;;22.80;4.57;;;32.40;91.20;;;;;;5065874;28;20045;-64
2022/08/03 12:20:37;;;;;;;15.40;4.30;;;32.50;91.30;;;;;;5045077;28;20182;-66
2022/08/03 12:23:04;;;;;;;20.17;4.63;;;32.50;90.90;;;;;;5068865;28;20414;-65
2022/08/03 12:25:31;;;;;;;16.30;4.07;;;32.40;90.40;;;;;;5070289;28;20044;-65
2022/08/03 12:28:30;;;;;;;23.38;4.32;;;32.50;90.90;;;;;;5065076;28;20052;-65
2022/08/03 12:31:05;;;;;;;18.77;4.28;;;32.50;90.30;;;;;;5007534;28;20141;-65
2022/08/03 12:33:53;;;;;;;19.08;4.57;;;32.50;89.80;;;;;;5051836;28;20057;-66
2022/08/03 12:36:19;;;;;;;23.50;4.30;;;32.50;89.40;;;;;;5039063;28;20132;-65
2022/08/03 12:38:55;;;;;;;21.77;4.00;;;32.50;90.40;;;;;;5071700;28;20037;-66
2022/08/03 12:41:31;;;;;;;14.07;4.20;;;32.40;90.40;;;;;;5070946;28;20444;-63
2022/08/03 12:43:57;;;;;;;16.25;4.30;;;32.60;88.20;;;;;;5052275;28;20041;-64
2022/08/03 12:46:36;;;;;;;22.20;4.18;;;32.60;89.60;;;;;;5047710;28;20048;-66
2022/08/03 12:49:02;;;;;;;20.05;5.10;;;32.60;89.10;;;;;;5064110;28;20494;-64
2022/08/03 12:51:33;;;;;;;20.30;4.57;;;32.40;88.50;;;;;;5070112;28;20094;-65
2022/08/03 12:53:59;;;;;;;22.00;4.15;;;32.40;88.70;;;;;;5049219;28;20162;-65
2022/08/03 12:56:25;;;;;;;20.23;4.80;;;32.40;89.60;;;;;;5074599;28;20234;-65
2022/08/03 12:58:51;;;;;;;19.38;4.50;;;32.30;88.60;;;;;;5075284;28;20055;-65
2022/08/03 13:01:18;;;;;;;17.95;4.75;;;32.20;88.60;;;;;;5061249;28;20049;-66
2022/08/03 13:03:49;;;;;;;18.60;4.70;;;32.20;88.30;;;;;;5057171;28;20052;-65